sensor_id;sensor_type;location;lat;lon;timestamp;pressure;altitude;pressure_sealevel;temperature
31921;BMP280;66485;52.128;4.436;2023-04-08T00:01:53;102395.75;;;17.35
31921;BMP280;66485;52.128;4.436;2023-04-08T00:04:19;102406.59;;;17.35
31921;BMP280;66485;52.128;4.436;2023-04-08T00:06:44;102405.41;;;17.36
31921;BMP280;66485;52.128;4.436;2023-04-08T00:09:09;102408.91;;;17.36
31921;BMP280;66485;52.128;4.436;2023-04-08T00:11:35;102405.06;;;17.37
31921;BMP280;66485;52.128;4.436;2023-04-08T00:14:02;102405.06;;;17.37
31921;BMP280;66485;52.128;4.436;2023-04-08T00:16:28;102403.13;;;17.38
31921;BMP280;66485;52.128;4.436;2023-04-08T00:18:54;102398.53;;;17.42
31921;BMP280;66485;52.128;4.436;2023-04-08T00:21:19;102401.22;;;17.42
31921;BMP280;66485;52.128;4.436;2023-04-08T00:23:45;102401.22;;;17.42
31921;BMP280;66485;52.128;4.436;2023-04-08T00:26:11;102403.16;;;17.41
31921;BMP280;66485;52.128;4.436;2023-04-08T00:28:36;102398.97;;;17.44
31921;BMP280;66485;52.128;4.436;2023-04-08T00:31:02;102405.91;;;17.45
31921;BMP280;66485;52.128;4.436;2023-04-08T00:33:27;102400.09;;;17.43
31921;BMP280;66485;52.128;4.436;2023-04-08T00:35:52;102397.34;;;17.39
31921;BMP280;66485;52.128;4.436;2023-04-08T00:38:18;102397.34;;;17.39
31921;BMP280;66485;52.128;4.436;2023-04-08T00:40:43;102404.28;;;17.37
31921;BMP280;66485;52.128;4.436;2023-04-08T00:43:08;102405.41;;;17.36
31921;BMP280;66485;52.128;4.436;2023-04-08T00:45:34;102408.13;;;17.36
31921;BMP280;66485;52.128;4.436;2023-04-08T00:48:01;102409.66;;;17.33
31921;BMP280;66485;52.128;4.436;2023-04-08T00:50:27;102403.09;;;17.34
31921;BMP280;66485;52.128;4.436;2023-04-08T00:52:52;102413.84;;;17.31
31921;BMP280;66485;52.128;4.436;2023-04-08T00:55:18;102409.19;;;17.28
31921;BMP280;66485;52.128;4.436;2023-04-08T00:57:43;102407.59;;;17.23
31921;BMP280;66485;52.128;4.436;2023-04-08T01:00:09;102412.56;;;17.21
31921;BMP280;66485;52.128;4.436;2023-04-08T01:02:46;102412.19;;;17.19
31921;BMP280;66485;52.128;4.436;2023-04-08T01:05:15;102414.50;;;17.21
31921;BMP280;66485;52.128;4.436;2023-04-08T01:07:48;102417.19;;;17.21
31921;BMP280;66485;52.128;4.436;2023-04-08T01:10:19;102417.19;;;17.21
31921;BMP280;66485;52.128;4.436;2023-04-08T01:12:53;102417.19;;;17.21
31921;BMP280;66485;52.128;4.436;2023-04-08T01:15:19;102414.09;;;17.19
31921;BMP280;66485;52.128;4.436;2023-04-08T01:17:47;102418.75;;;17.22
31921;BMP280;66485;52.128;4.436;2023-04-08T01:20:14;102418.75;;;17.22
31921;BMP280;66485;52.128;4.436;2023-04-08T01:25:29;102417.16;;;17.17
31921;BMP280;66485;52.128;4.436;2023-04-08T01:27:57;102406.31;;;17.14
31921;BMP280;66485;52.128;4.436;2023-04-08T01:30:24;102407.47;;;17.16
31921;BMP280;66485;52.128;4.436;2023-04-08T01:32:51;102413.28;;;17.15
31921;BMP280;66485;52.128;4.436;2023-04-08T01:35:18;102410.94;;;17.13
31921;BMP280;66485;52.128;4.436;2023-04-08T01:37:44;102409.03;;;17.14
31921;BMP280;66485;52.128;4.436;2023-04-08T01:40:11;102412.13;;;17.16
31921;BMP280;66485;52.128;4.436;2023-04-08T01:42:37;102413.28;;;17.15
31921;BMP280;66485;52.128;4.436;2023-04-08T01:45:05;102416.72;;;17.12
31921;BMP280;66485;52.128;4.436;2023-04-08T01:47:32;102411.75;;;17.17
31921;BMP280;66485;52.128;4.436;2023-04-08T01:49:58;102416.06;;;17.22
31921;BMP280;66485;52.128;4.436;2023-04-08T01:52:25;102416.16;;;17.25
31921;BMP280;66485;52.128;4.436;2023-04-08T01:54:52;102416.16;;;17.25
31921;BMP280;66485;52.128;4.436;2023-04-08T01:57:23;102425.88;;;17.30
31921;BMP280;66485;52.128;4.436;2023-04-08T01:59:51;102424.28;;;17.25
31921;BMP280;66485;52.128;4.436;2023-04-08T02:02:18;102428.56;;;17.30
31921;BMP280;66485;52.128;4.436;2023-04-08T02:04:45;102423.78;;;17.20
31921;BMP280;66485;52.128;4.436;2023-04-08T02:07:11;102421.47;;;17.22
31921;BMP280;66485;52.128;4.436;2023-04-08T02:09:36;102425.25;;;17.14
31921;BMP280;66485;52.128;4.436;2023-04-08T02:12:02;102425.25;;;17.14
31921;BMP280;66485;52.128;4.436;2023-04-08T02:14:27;102430.19;;;17.34
31921;BMP280;66485;52.128;4.436;2023-04-08T02:17:00;102430.19;;;17.34
31921;BMP280;66485;52.128;4.436;2023-04-08T02:19:35;102424.00;;;17.34
31921;BMP280;66485;52.128;4.436;2023-04-08T02:22:04;102425.56;;;17.35
31921;BMP280;66485;52.128;4.436;2023-04-08T02:24:34;102425.56;;;17.35
31921;BMP280;66485;52.128;4.436;2023-04-08T02:27:02;102428.28;;;17.35
31921;BMP280;66485;52.128;4.436;2023-04-08T02:29:30;102429.41;;;17.34
31921;BMP280;66485;52.128;4.436;2023-04-08T02:31:56;102429.41;;;17.34
31921;BMP280;66485;52.128;4.436;2023-04-08T02:34:22;102432.94;;;17.38
31921;BMP280;66485;52.128;4.436;2023-04-08T02:36:49;102435.63;;;17.34
31921;BMP280;66485;52.128;4.436;2023-04-08T02:39:15;102431.34;;;17.33
31921;BMP280;66485;52.128;4.436;2023-04-08T02:41:41;102427.09;;;17.36
31921;BMP280;66485;52.128;4.436;2023-04-08T02:44:06;102425.94;;;17.37
31921;BMP280;66485;52.128;4.436;2023-04-08T02:46:31;102427.09;;;17.36
31921;BMP280;66485;52.128;4.436;2023-04-08T02:48:57;102430.59;;;17.36
31921;BMP280;66485;52.128;4.436;2023-04-08T02:51:23;102430.59;;;17.36
31921;BMP280;66485;52.128;4.436;2023-04-08T02:53:48;102435.63;;;17.38
31921;BMP280;66485;52.128;4.436;2023-04-08T02:56:13;102439.13;;;17.38
31921;BMP280;66485;52.128;4.436;2023-04-08T02:58:38;102438.00;;;17.39
31921;BMP280;66485;52.128;4.436;2023-04-08T03:01:12;102435.28;;;17.39
31921;BMP280;66485;52.128;4.436;2023-04-08T03:03:37;102436.44;;;17.38
31921;BMP280;66485;52.128;4.436;2023-04-08T03:06:02;102433.28;;;17.36
31921;BMP280;66485;52.128;4.436;2023-04-08T03:08:28;102433.28;;;17.36
31921;BMP280;66485;52.128;4.436;2023-04-08T03:10:53;102439.09;;;17.35
31921;BMP280;66485;52.128;4.436;2023-04-08T03:13:18;102447.97;;;17.35
31921;BMP280;66485;52.128;4.436;2023-04-08T03:15:44;102445.66;;;17.34
31921;BMP280;66485;52.128;4.436;2023-04-08T03:18:09;102441.38;;;17.33
31921;BMP280;66485;52.128;4.436;2023-04-08T03:20:34;102443.25;;;17.29
31921;BMP280;66485;52.128;4.436;2023-04-08T03:23:00;102448.16;;;17.20
31921;BMP280;66485;52.128;4.436;2023-04-08T03:25:25;102451.22;;;17.18
31921;BMP280;66485;52.128;4.436;2023-04-08T03:27:53;102454.31;;;17.17
31921;BMP280;66485;52.128;4.436;2023-04-08T03:30:18;102455.44;;;17.16
31921;BMP280;66485;52.128;4.436;2023-04-08T03:32:44;102451.19;;;17.15
31921;BMP280;66485;52.128;4.436;2023-04-08T03:35:10;102455.06;;;17.14
31921;BMP280;66485;52.128;4.436;2023-04-08T03:37:35;102458.91;;;17.13
31921;BMP280;66485;52.128;4.436;2023-04-08T03:40:00;102458.91;;;17.13
31921;BMP280;66485;52.128;4.436;2023-04-08T03:42:26;102460.03;;;17.12
31921;BMP280;66485;52.128;4.436;2023-04-08T03:44:51;102460.03;;;17.12
31921;BMP280;66485;52.128;4.436;2023-04-08T03:47:16;102471.66;;;17.12
31921;BMP280;66485;52.128;4.436;2023-04-08T03:49:42;102471.66;;;17.12
31921;BMP280;66485;52.128;4.436;2023-04-08T03:52:07;102470.88;;;17.12
31921;BMP280;66485;52.128;4.436;2023-04-08T03:54:32;102470.06;;;17.11
31921;BMP280;66485;52.128;4.436;2023-04-08T03:56:57;102470.06;;;17.11
31921;BMP280;66485;52.128;4.436;2023-04-08T03:59:23;102467.44;;;17.15
31921;BMP280;66485;52.128;4.436;2023-04-08T04:01:49;102472.44;;;17.13
31921;BMP280;66485;52.128;4.436;2023-04-08T04:04:16;102480.09;;;17.11
31921;BMP280;66485;52.128;4.436;2023-04-08T04:06:41;102479.72;;;17.09
31921;BMP280;66485;52.128;4.436;2023-04-08T04:09:07;102478.16;;;17.08
31921;BMP280;66485;52.128;4.436;2023-04-08T04:11:35;102492.47;;;17.08
31921;BMP280;66485;52.128;4.436;2023-04-08T04:14:01;102492.47;;;17.08
31921;BMP280;66485;52.128;4.436;2023-04-08T04:16:26;102494.81;;;17.10
31921;BMP280;66485;52.128;4.436;2023-04-08T04:18:52;102491.72;;;17.11
31921;BMP280;66485;52.128;4.436;2023-04-08T04:21:18;102491.72;;;17.11
31921;BMP280;66485;52.128;4.436;2023-04-08T04:23:43;102488.22;;;17.11
31921;BMP280;66485;52.128;4.436;2023-04-08T04:26:09;102490.16;;;17.10
31921;BMP280;66485;52.128;4.436;2023-04-08T04:28:34;102493.31;;;17.12
31921;BMP280;66485;52.128;4.436;2023-04-08T04:31:00;102494.81;;;17.10
31921;BMP280;66485;52.128;4.436;2023-04-08T04:33:25;102511.44;;;17.08
31921;BMP280;66485;52.128;4.436;2023-04-08T04:35:51;102504.16;;;17.12
31921;BMP280;66485;52.128;4.436;2023-04-08T04:38:16;102509.25;;;17.17
31921;BMP280;66485;52.128;4.436;2023-04-08T04:40:42;102509.25;;;17.17
31921;BMP280;66485;52.128;4.436;2023-04-08T04:43:08;102495.34;;;17.19
31921;BMP280;66485;52.128;4.436;2023-04-08T04:45:33;102511.69;;;17.26
31921;BMP280;66485;52.128;4.436;2023-04-08T04:47:59;102511.69;;;17.26
31921;BMP280;66485;52.128;4.436;2023-04-08T04:50:24;102508.97;;;17.26
31921;BMP280;66485;52.128;4.436;2023-04-08T04:52:50;102508.97;;;17.26
31921;BMP280;66485;52.128;4.436;2023-04-08T04:55:15;102515.97;;;17.27
31921;BMP280;66485;52.128;4.436;2023-04-08T04:57:40;102520.59;;;17.26
31921;BMP280;66485;52.128;4.436;2023-04-08T05:00:06;102519.47;;;17.27
31921;BMP280;66485;52.128;4.436;2023-04-08T05:02:33;102522.94;;;17.28
31921;BMP280;66485;52.128;4.436;2023-04-08T05:04:58;102532.63;;;17.29
31921;BMP280;66485;52.128;4.436;2023-04-08T05:07:24;102532.63;;;17.29
31921;BMP280;66485;52.128;4.436;2023-04-08T05:09:49;102526.41;;;17.25
31921;BMP280;66485;52.128;4.436;2023-04-08T05:12:15;102533.41;;;17.29
31921;BMP280;66485;52.128;4.436;2023-04-08T05:14:40;102533.41;;;17.29
31921;BMP280;66485;52.128;4.436;2023-04-08T05:17:06;102525.66;;;17.28
31921;BMP280;66485;52.128;4.436;2023-04-08T05:19:31;102525.66;;;17.28
31921;BMP280;66485;52.128;4.436;2023-04-08T05:21:57;102527.59;;;17.27
31921;BMP280;66485;52.128;4.436;2023-04-08T05:24:22;102542.34;;;17.30
31921;BMP280;66485;52.128;4.436;2023-04-08T05:26:47;102542.34;;;17.30
31921;BMP280;66485;52.128;4.436;2023-04-08T05:29:16;102539.97;;;17.28
31921;BMP280;66485;52.128;4.436;2023-04-08T05:31:43;102545.38;;;17.25
31921;BMP280;66485;52.128;4.436;2023-04-08T05:34:08;102541.13;;;17.27
31921;BMP280;66485;52.128;4.436;2023-04-08T05:36:34;102540.31;;;17.23
31921;BMP280;66485;52.128;4.436;2023-04-08T05:38:59;102551.56;;;17.25
31921;BMP280;66485;52.128;4.436;2023-04-08T05:41:25;102551.56;;;17.25
31921;BMP280;66485;52.128;4.436;2023-04-08T05:43:50;102560.41;;;17.22
31921;BMP280;66485;52.128;4.436;2023-04-08T05:46:15;102565.81;;;17.22
31921;BMP280;66485;52.128;4.436;2023-04-08T05:48:41;102563.53;;;17.24
31921;BMP280;66485;52.128;4.436;2023-04-08T05:51:12;102572.75;;;17.20
31921;BMP280;66485;52.128;4.436;2023-04-08T05:53:37;102573.13;;;17.22
31921;BMP280;66485;52.128;4.436;2023-04-08T05:56:03;102576.59;;;17.19
31921;BMP280;66485;52.128;4.436;2023-04-08T05:58:28;102576.59;;;17.19
31921;BMP280;66485;52.128;4.436;2023-04-08T06:00:53;102569.97;;;17.16
31921;BMP280;66485;52.128;4.436;2023-04-08T06:03:19;102580.44;;;17.18
31921;BMP280;66485;52.128;4.436;2023-04-08T06:05:45;102583.94;;;17.18
31921;BMP280;66485;52.128;4.436;2023-04-08T06:08:10;102583.88;;;17.15
31921;BMP280;66485;52.128;4.436;2023-04-08T06:10:35;102591.69;;;17.20
31921;BMP280;66485;52.128;4.436;2023-04-08T06:13:00;102588.56;;;17.18
31921;BMP280;66485;52.128;4.436;2023-04-08T06:15:26;102594.72;;;17.15
31921;BMP280;66485;52.128;4.436;2023-04-08T06:17:52;102593.56;;;17.16
31921;BMP280;66485;52.128;4.436;2023-04-08T06:20:17;102593.56;;;17.16
31921;BMP280;66485;52.128;4.436;2023-04-08T06:22:42;102589.94;;;17.08
31921;BMP280;66485;52.128;4.436;2023-04-08T06:25:08;102600.44;;;17.10
31921;BMP280;66485;52.128;4.436;2023-04-08T06:27:33;102603.06;;;17.06
31921;BMP280;66485;52.128;4.436;2023-04-08T06:29:58;102600.00;;;17.08
31921;BMP280;66485;52.128;4.436;2023-04-08T06:32:24;102600.44;;;17.10
31921;BMP280;66485;52.128;4.436;2023-04-08T06:34:49;102608.56;;;17.10
31921;BMP280;66485;52.128;4.436;2023-04-08T06:37:14;102609.69;;;17.09
31921;BMP280;66485;52.128;4.436;2023-04-08T06:39:40;102611.63;;;17.08
31921;BMP280;66485;52.128;4.436;2023-04-08T06:42:05;102611.63;;;17.08
31921;BMP280;66485;52.128;4.436;2023-04-08T06:44:31;102615.50;;;17.11
31921;BMP280;66485;52.128;4.436;2023-04-08T06:46:56;102619.72;;;17.08
31921;BMP280;66485;52.128;4.436;2023-04-08T06:49:21;102624.00;;;17.09
31921;BMP280;66485;52.128;4.436;2023-04-08T06:51:47;102627.84;;;17.08
31921;BMP280;66485;52.128;4.436;2023-04-08T06:54:13;102627.84;;;17.08
31921;BMP280;66485;52.128;4.436;2023-04-08T06:56:38;102631.75;;;17.11
31921;BMP280;66485;52.128;4.436;2023-04-08T06:59:03;102631.75;;;17.11
31921;BMP280;66485;52.128;4.436;2023-04-08T07:01:29;102627.84;;;17.08
31921;BMP280;66485;52.128;4.436;2023-04-08T07:03:54;102644.19;;;17.12
31921;BMP280;66485;52.128;4.436;2023-04-08T07:06:20;102640.66;;;17.11
31921;BMP280;66485;52.128;4.436;2023-04-08T07:08:46;102640.66;;;17.11
31921;BMP280;66485;52.128;4.436;2023-04-08T07:11:11;102652.31;;;17.12
31921;BMP280;66485;52.128;4.436;2023-04-08T07:13:36;102658.16;;;17.14
31921;BMP280;66485;52.128;4.436;2023-04-08T07:16:02;102658.16;;;17.14
31921;BMP280;66485;52.128;4.436;2023-04-08T07:18:27;102653.78;;;17.09
31921;BMP280;66485;52.128;4.436;2023-04-08T07:20:53;102656.59;;;17.13
31921;BMP280;66485;52.128;4.436;2023-04-08T07:23:19;102663.56;;;17.14
31921;BMP280;66485;52.128;4.436;2023-04-08T07:25:45;102665.53;;;17.17
31921;BMP280;66485;52.128;4.436;2023-04-08T07:28:11;102671.00;;;17.20
31921;BMP280;66485;52.128;4.436;2023-04-08T07:30:36;102671.38;;;17.19
31921;BMP280;66485;52.128;4.436;2023-04-08T07:33:01;102664.91;;;17.23
31921;BMP280;66485;52.128;4.436;2023-04-08T07:35:27;102664.91;;;17.23
31921;BMP280;66485;52.128;4.436;2023-04-08T07:37:52;102676.59;;;17.31
31921;BMP280;66485;52.128;4.436;2023-04-08T07:40:19;102674.03;;;17.38
31921;BMP280;66485;52.128;4.436;2023-04-08T07:42:45;102674.03;;;17.38
31921;BMP280;66485;52.128;4.436;2023-04-08T07:45:10;102674.84;;;17.42
31921;BMP280;66485;52.128;4.436;2023-04-08T07:47:36;102670.69;;;17.45
31921;BMP280;66485;52.128;4.436;2023-04-08T07:50:02;102671.06;;;17.47
31921;BMP280;66485;52.128;4.436;2023-04-08T07:52:29;102680.00;;;17.47
31921;BMP280;66485;52.128;4.436;2023-04-08T07:54:55;102678.06;;;17.48
31921;BMP280;66485;52.128;4.436;2023-04-08T07:57:20;102673.78;;;17.47
31921;BMP280;66485;52.128;4.436;2023-04-08T07:59:45;102673.78;;;17.47
31921;BMP280;66485;52.128;4.436;2023-04-08T08:02:11;102680.41;;;17.49
31921;BMP280;66485;52.128;4.436;2023-04-08T08:04:36;102687.75;;;17.49
31921;BMP280;66485;52.128;4.436;2023-04-08T08:07:01;102683.13;;;17.49
31921;BMP280;66485;52.128;4.436;2023-04-08T08:09:26;102687.00;;;17.52
31921;BMP280;66485;52.128;4.436;2023-04-08T08:11:52;102678.97;;;17.55
31921;BMP280;66485;52.128;4.436;2023-04-08T08:14:17;102678.97;;;17.55
31921;BMP280;66485;52.128;4.436;2023-04-08T08:16:42;102682.03;;;17.54
31921;BMP280;66485;52.128;4.436;2023-04-08T08:19:08;102699.94;;;17.58
31921;BMP280;66485;52.128;4.436;2023-04-08T08:21:37;102699.94;;;17.58
31921;BMP280;66485;52.128;4.436;2023-04-08T08:24:03;102702.22;;;17.56
31921;BMP280;66485;52.128;4.436;2023-04-08T08:26:29;102708.06;;;17.58
31921;BMP280;66485;52.128;4.436;2023-04-08T08:28:54;102715.03;;;17.59
31921;BMP280;66485;52.128;4.436;2023-04-08T08:31:19;102715.03;;;17.59
31921;BMP280;66485;52.128;4.436;2023-04-08T08:33:45;102713.56;;;17.65
31921;BMP280;66485;52.128;4.436;2023-04-08T08:36:11;102717.00;;;17.62
31921;BMP280;66485;52.128;4.436;2023-04-08T08:38:37;102717.00;;;17.62
31921;BMP280;66485;52.128;4.436;2023-04-08T08:41:03;102710.81;;;17.62
31921;BMP280;66485;52.128;4.436;2023-04-08T08:43:29;102718.22;;;17.65
31921;BMP280;66485;52.128;4.436;2023-04-08T08:45:57;102718.97;;;17.65
31921;BMP280;66485;52.128;4.436;2023-04-08T08:48:23;102720.16;;;17.64
31921;BMP280;66485;52.128;4.436;2023-04-08T08:50:48;102725.56;;;17.64
31921;BMP280;66485;52.128;4.436;2023-04-08T08:53:14;102725.56;;;17.64
31921;BMP280;66485;52.128;4.436;2023-04-08T08:55:39;102715.50;;;17.65
31921;BMP280;66485;52.128;4.436;2023-04-08T08:58:05;102715.50;;;17.65
31921;BMP280;66485;52.128;4.436;2023-04-08T09:00:39;102716.25;;;17.65
31921;BMP280;66485;52.128;4.436;2023-04-08T09:03:19;102716.25;;;17.65
31921;BMP280;66485;52.128;4.436;2023-04-08T09:05:59;102710.09;;;17.65
31921;BMP280;66485;52.128;4.436;2023-04-08T09:08:29;102710.09;;;17.65
31921;BMP280;66485;52.128;4.436;2023-04-08T09:11:10;102714.78;;;17.68
31921;BMP280;66485;52.128;4.436;2023-04-08T09:13:36;102711.31;;;17.67
31921;BMP280;66485;52.128;4.436;2023-04-08T09:16:02;102716.38;;;17.69
31921;BMP280;66485;52.128;4.436;2023-04-08T09:18:29;102709.38;;;17.68
31921;BMP280;66485;52.128;4.436;2023-04-08T09:20:55;102716.72;;;17.67
31921;BMP280;66485;52.128;4.436;2023-04-08T09:23:20;102721.41;;;17.70
31921;BMP280;66485;52.128;4.436;2023-04-08T09:25:45;102721.00;;;17.68
31921;BMP280;66485;52.128;4.436;2023-04-08T09:28:20;102715.63;;;17.72
31921;BMP280;66485;52.128;4.436;2023-04-08T09:30:46;102729.94;;;17.72
31921;BMP280;66485;52.128;4.436;2023-04-08T09:33:12;102716.03;;;17.74
31921;BMP280;66485;52.128;4.436;2023-04-08T09:35:37;102726.50;;;17.75
31921;BMP280;66485;52.128;4.436;2023-04-08T09:38:03;102722.69;;;17.76
31921;BMP280;66485;52.128;4.436;2023-04-08T09:40:32;102721.94;;;17.79
31921;BMP280;66485;52.128;4.436;2023-04-08T09:42:59;102721.94;;;17.79
31921;BMP280;66485;52.128;4.436;2023-04-08T09:45:26;102719.66;;;17.82
31921;BMP280;66485;52.128;4.436;2023-04-08T09:47:56;102719.66;;;17.82
31921;BMP280;66485;52.128;4.436;2023-04-08T09:50:31;102725.88;;;17.86
31921;BMP280;66485;52.128;4.436;2023-04-08T09:53:08;102725.88;;;17.86
31921;BMP280;66485;52.128;4.436;2023-04-08T09:55:35;102719.31;;;17.87
31921;BMP280;66485;52.128;4.436;2023-04-08T09:58:03;102719.84;;;17.96
31921;BMP280;66485;52.128;4.436;2023-04-08T10:00:37;102721.09;;;17.98
31921;BMP280;66485;52.128;4.436;2023-04-08T10:05:30;102724.66;;;18.06
31921;BMP280;66485;52.128;4.436;2023-04-08T10:07:56;102729.72;;;18.07
31921;BMP280;66485;52.128;4.436;2023-04-08T10:10:22;102724.34;;;18.11
31921;BMP280;66485;52.128;4.436;2023-04-08T10:12:48;102724.34;;;18.11
31921;BMP280;66485;52.128;4.436;2023-04-08T10:15:24;102729.53;;;18.20
31921;BMP280;66485;52.128;4.436;2023-04-08T10:17:50;102729.53;;;18.20
31921;BMP280;66485;52.128;4.436;2023-04-08T10:20:40;102714.84;;;18.24
31921;BMP280;66485;52.128;4.436;2023-04-08T10:23:14;102714.50;;;18.29
31921;BMP280;66485;52.128;4.436;2023-04-08T10:28:25;102717.22;;;18.29
31921;BMP280;66485;52.128;4.436;2023-04-08T10:30:52;102720.81;;;18.37
31921;BMP280;66485;52.128;4.436;2023-04-08T10:33:33;102720.09;;;18.40
31921;BMP280;66485;52.128;4.436;2023-04-08T10:36:00;102717.34;;;18.36
31921;BMP280;66485;52.128;4.436;2023-04-08T10:38:39;102715.44;;;18.40
31921;BMP280;66485;52.128;4.436;2023-04-08T10:41:06;102705.00;;;18.42
31921;BMP280;66485;52.128;4.436;2023-04-08T10:43:33;102710.06;;;18.44
31921;BMP280;66485;52.128;4.436;2023-04-08T10:45:59;102712.41;;;18.45
31921;BMP280;66485;52.128;4.436;2023-04-08T10:48:24;102711.31;;;18.50
31921;BMP280;66485;52.128;4.436;2023-04-08T10:50:59;102716.81;;;18.57
31921;BMP280;66485;52.128;4.436;2023-04-08T10:53:26;102704.84;;;18.62
31921;BMP280;66485;52.128;4.436;2023-04-08T10:55:52;102704.84;;;18.62
31921;BMP280;66485;52.128;4.436;2023-04-08T10:58:18;102715.38;;;18.67
31921;BMP280;66485;52.128;4.436;2023-04-08T11:00:43;102715.38;;;18.67
31921;BMP280;66485;52.128;4.436;2023-04-08T11:03:09;102711.91;;;18.70
31921;BMP280;66485;52.128;4.436;2023-04-08T11:05:36;102710.81;;;18.74
31921;BMP280;66485;52.128;4.436;2023-04-08T11:08:02;102707.38;;;18.81
31921;BMP280;66485;52.128;4.436;2023-04-08T11:10:28;102712.50;;;18.86
31921;BMP280;66485;52.128;4.436;2023-04-08T11:12:54;102716.44;;;18.92
31921;BMP280;66485;52.128;4.436;2023-04-08T11:15:21;102708.34;;;18.96
31921;BMP280;66485;52.128;4.436;2023-04-08T11:17:47;102708.34;;;18.96
31921;BMP280;66485;52.128;4.436;2023-04-08T11:20:13;102702.03;;;18.88
31921;BMP280;66485;52.128;4.436;2023-04-08T11:22:38;102705.19;;;18.93
31921;BMP280;66485;52.128;4.436;2023-04-08T11:25:05;102704.94;;;19.06
31921;BMP280;66485;52.128;4.436;2023-04-08T11:27:33;102705.78;;;19.13
31921;BMP280;66485;52.128;4.436;2023-04-08T11:30:00;102701.50;;;19.12
31921;BMP280;66485;52.128;4.436;2023-04-08T11:32:26;102704.28;;;19.19
31921;BMP280;66485;52.128;4.436;2023-04-08T11:34:53;102703.53;;;19.19
31921;BMP280;66485;52.128;4.436;2023-04-08T11:37:19;102709.34;;;19.24
31921;BMP280;66485;52.128;4.436;2023-04-08T11:39:45;102709.34;;;19.24
31921;BMP280;66485;52.128;4.436;2023-04-08T11:42:30;102703.22;;;19.31
31921;BMP280;66485;52.128;4.436;2023-04-08T11:44:56;102700.53;;;19.35
31921;BMP280;66485;52.128;4.436;2023-04-08T11:47:30;102706.47;;;19.51
31921;BMP280;66485;52.128;4.436;2023-04-08T11:49:56;102715.06;;;19.53
31921;BMP280;66485;52.128;4.436;2023-04-08T11:52:21;102706.22;;;19.63
31921;BMP280;66485;52.128;4.436;2023-04-08T11:54:47;102708.13;;;19.62
31921;BMP280;66485;52.128;4.436;2023-04-08T11:57:12;102710.88;;;19.66
31921;BMP280;66485;52.128;4.436;2023-04-08T11:59:39;102711.66;;;19.70
31921;BMP280;66485;52.128;4.436;2023-04-08T12:02:05;102711.66;;;19.70
31921;BMP280;66485;52.128;4.436;2023-04-08T12:04:30;102712.50;;;19.78
31921;BMP280;66485;52.128;4.436;2023-04-08T12:06:56;102707.44;;;19.73
31921;BMP280;66485;52.128;4.436;2023-04-08T12:09:21;102707.03;;;19.74
31921;BMP280;66485;52.128;4.436;2023-04-08T12:11:47;102706.69;;;19.79
31921;BMP280;66485;52.128;4.436;2023-04-08T12:14:13;102706.69;;;19.79
31921;BMP280;66485;52.128;4.436;2023-04-08T12:16:38;102716.06;;;19.92
31921;BMP280;66485;52.128;4.436;2023-04-08T12:19:04;102716.06;;;19.92
31921;BMP280;66485;52.128;4.436;2023-04-08T12:21:29;102704.50;;;20.02
31921;BMP280;66485;52.128;4.436;2023-04-08T12:23:56;102697.16;;;20.14
31921;BMP280;66485;52.128;4.436;2023-04-08T12:26:21;102697.94;;;20.10
31921;BMP280;66485;52.128;4.436;2023-04-08T12:28:46;102697.94;;;20.10
31921;BMP280;66485;52.128;4.436;2023-04-08T12:31:12;102683.53;;;20.10
31921;BMP280;66485;52.128;4.436;2023-04-08T12:33:37;102696.44;;;20.27
31921;BMP280;66485;52.128;4.436;2023-04-08T12:36:02;102697.63;;;20.26
31921;BMP280;66485;52.128;4.436;2023-04-08T12:38:28;102696.09;;;20.36
31921;BMP280;66485;52.128;4.436;2023-04-08T12:40:54;102689.50;;;20.44
31921;BMP280;66485;52.128;4.436;2023-04-08T12:43:20;102689.50;;;20.44
31921;BMP280;66485;52.128;4.436;2023-04-08T12:45:46;102693.03;;;20.59
31921;BMP280;66485;52.128;4.436;2023-04-08T12:48:12;102686.84;;;20.65
31921;BMP280;66485;52.128;4.436;2023-04-08T12:50:37;102689.56;;;20.72
31921;BMP280;66485;52.128;4.436;2023-04-08T12:53:02;102687.97;;;20.57
31921;BMP280;66485;52.128;4.436;2023-04-08T12:55:28;102695.38;;;20.60
31921;BMP280;66485;52.128;4.436;2023-04-08T12:57:53;102695.38;;;20.60
31921;BMP280;66485;52.128;4.436;2023-04-08T13:00:18;102699.69;;;20.61
31921;BMP280;66485;52.128;4.436;2023-04-08T13:02:45;102702.81;;;20.70
31921;BMP280;66485;52.128;4.436;2023-04-08T13:05:10;102704.34;;;20.71
31921;BMP280;66485;52.128;4.436;2023-04-08T13:07:35;102700.47;;;20.72
31921;BMP280;66485;52.128;4.436;2023-04-08T13:10:01;102697.34;;;20.77
31921;BMP280;66485;52.128;4.436;2023-04-08T13:12:27;102698.53;;;20.83
31921;BMP280;66485;52.128;4.436;2023-04-08T13:14:53;102702.81;;;20.92
31921;BMP280;66485;52.128;4.436;2023-04-08T13:17:19;102704.03;;;20.91
31921;BMP280;66485;52.128;4.436;2023-04-08T13:19:44;102696.97;;;20.89
31921;BMP280;66485;52.128;4.436;2023-04-08T13:22:10;102696.97;;;20.89
31921;BMP280;66485;52.128;4.436;2023-04-08T13:24:35;102694.25;;;20.97
31921;BMP280;66485;52.128;4.436;2023-04-08T13:27:01;102694.31;;;21.04
31921;BMP280;66485;52.128;4.436;2023-04-08T13:29:27;102687.28;;;21.06
31921;BMP280;66485;52.128;4.436;2023-04-08T13:31:52;102687.28;;;21.06
31921;BMP280;66485;52.128;4.436;2023-04-08T13:34:18;102687.63;;;21.08
31921;BMP280;66485;52.128;4.436;2023-04-08T13:36:43;102693.13;;;21.15
31921;BMP280;66485;52.128;4.436;2023-04-08T13:39:08;102693.13;;;21.15
31921;BMP280;66485;52.128;4.436;2023-04-08T13:41:34;102677.94;;;21.14
31921;BMP280;66485;52.128;4.436;2023-04-08T13:43:59;102682.22;;;21.26
31921;BMP280;66485;52.128;4.436;2023-04-08T13:46:25;102675.59;;;21.27
31921;BMP280;66485;52.128;4.436;2023-04-08T13:48:50;102682.97;;;21.30
31921;BMP280;66485;52.128;4.436;2023-04-08T13:51:16;102684.13;;;21.33
31921;BMP280;66485;52.128;4.436;2023-04-08T13:53:41;102682.56;;;21.42
31921;BMP280;66485;52.128;4.436;2023-04-08T13:56:06;102682.56;;;21.42
31921;BMP280;66485;52.128;4.436;2023-04-08T13:58:32;102675.56;;;21.48
31921;BMP280;66485;52.128;4.436;2023-04-08T14:00:57;102675.56;;;21.48